Terminal Aerodrome Forecast
Issued by NWS

Home | Current Version | Previous Version | Text Only | Print | Product List | Glossary On
Versions: 1 2 3 4 5 6 7 8 9 10 11 12 13 14 15 16 17 18 19 20 21 22
786
FTPA31 PHFO 281135
TAFHNY
TAF
PHNY 281135Z 2812/2912 VRB03KT P6SM SCT025 BKN045
     FM282000 28005KT P6SM BKN015
     FM290400 04010KT P6SM SCT015=

USA.gov is the U.S. government's official web portal to all federal, state and local government web resources and services.